CheckWX is a tool to help pilots better visualize weather data.  It is not intended as a substitute for an official pre-flight weather briefing.

20:02:48 UTC

KDZB METAR
Horseshoe Bay Resort Airport
Horseshoe Bay, Texas, USA
Current

45 mins ago

KDZB 191918Z AUTO 32006KT 10SM CLR 33/08 A2976 RMK AO2
Observed
Oct-19 @ 19:18 UTC
Wind
  • 320° at 6 KTS
Visibility
10 SM
Flight Rules
VFR
Cloud Levels
  • Clear skies
Temperature
33°C / 91°F
Dewpoint
C / 46°F
Humidity
21%
Altimeter
29.76" Hg
Pressure
1007.82 hPa
Previous

1 hour ago

KDZB 191857Z AUTO 33003KT 10SM CLR 33/08 A2978 RMK AO2
Observed
Oct-19 @ 18:57 UTC
Wind
  • 330° at 3 KTS
Visibility
10 SM
Flight Rules
VFR
Cloud Levels
  • Clear skies
Temperature
33°C / 91°F
Dewpoint
C / 46°F
Humidity
21%
Altimeter
29.78" Hg
Pressure
1008.42 hPa
Previous

1 hour ago

KDZB 191837Z AUTO 35007KT 10SM CLR 32/09 A2979 RMK AO2
Observed
Oct-19 @ 18:37 UTC
Wind
  • 350° at 7 KTS
Visibility
10 SM
Flight Rules
VFR
Cloud Levels
  • Clear skies
Temperature
32°C / 90°F
Dewpoint
C / 48°F
Humidity
24%
Altimeter
29.79" Hg
Pressure
1008.82 hPa